Time;durP1;ratioP1;P1;durP2;ratioP2;P2;SDS_P1;SDS_P2;PMS_P1;PMS_P2;Temp;Humidity;BMP_temperature;BMP_pressure;BME280_temperature;BME280_humidity;BME280_pressure;Samples;Min_cycle;Max_cycle;Signal;HPM_P1;HPM_P2
2021/05/08 00:01:20;;;;;;;6.45;3.47;;;7.90;67.10;;;;;;4947225;29;20070;-64
2021/05/08 00:03:46;;;;;;;5.35;3.17;;;7.90;66.80;;;;;;4946940;29;20047;-64
2021/05/08 00:06:12;;;;;;;5.13;3.17;;;7.90;66.80;;;;;;4948479;29;20310;-65
2021/05/08 00:08:38;;;;;;;5.22;3.35;;;7.90;66.70;;;;;;4946858;29;20044;-65
2021/05/08 00:11:03;;;;;;;3.90;2.88;;;7.80;67.10;;;;;;4946708;29;20111;-64
2021/05/08 00:13:29;;;;;;;4.57;3.10;;;7.90;67.00;;;;;;4946826;29;20040;-65
2021/05/08 00:15:54;;;;;;;4.05;2.95;;;7.90;67.20;;;;;;4946812;29;20099;-64
2021/05/08 00:18:20;;;;;;;4.03;2.95;;;7.90;67.10;;;;;;4946715;29;20024;-65
2021/05/08 00:20:45;;;;;;;8.15;3.35;;;7.90;67.20;;;;;;4948494;29;20188;-64
2021/05/08 00:23:11;;;;;;;5.88;3.30;;;7.90;67.50;;;;;;4946702;29;20036;-64
2021/05/08 00:25:36;;;;;;;4.75;3.20;;;7.90;67.30;;;;;;4946067;29;20091;-64
2021/05/08 00:28:02;;;;;;;3.97;3.10;;;7.90;67.10;;;;;;4946577;29;20050;-65
2021/05/08 00:30:27;;;;;;;6.05;3.22;;;7.90;67.10;;;;;;4946624;29;20054;-64
2021/05/08 00:32:53;;;;;;;4.82;3.13;;;7.80;67.10;;;;;;4948001;29;20370;-64
2021/05/08 00:35:18;;;;;;;4.65;3.03;;;7.80;67.50;;;;;;4946972;29;20035;-64
2021/05/08 00:37:44;;;;;;;3.92;2.78;;;7.80;67.20;;;;;;4946320;29;20403;-65
2021/05/08 00:40:10;;;;;;;4.53;2.90;;;7.90;66.90;;;;;;4946228;29;20082;-64
2021/05/08 00:42:35;;;;;;;5.70;2.88;;;7.90;66.50;;;;;;4946576;29;20099;-65
2021/05/08 00:45:01;;;;;;;3.63;2.83;;;7.90;66.50;;;;;;4930831;29;20232;-65
2021/05/08 00:47:27;;;;;;;7.38;3.20;;;7.80;66.50;;;;;;4929808;29;20059;-64
2021/05/08 00:49:52;;;;;;;4.00;2.70;;;7.80;66.50;;;;;;4929526;29;20102;-64
2021/05/08 00:52:17;;;;;;;4.43;2.92;;;7.70;66.50;;;;;;4945914;29;20050;-64
2021/05/08 00:54:43;;;;;;;4.75;3.08;;;7.70;66.40;;;;;;4929096;29;20050;-64
2021/05/08 00:57:09;;;;;;;5.43;3.20;;;7.60;66.80;;;;;;4947547;29;20078;-64
2021/05/08 00:59:35;;;;;;;6.72;3.00;;;7.60;67.10;;;;;;4946017;29;20143;-65
2021/05/08 01:02:01;;;;;;;5.53;3.25;;;7.60;67.10;;;;;;4929349;29;20040;-64
2021/05/08 01:04:26;;;;;;;5.95;2.97;;;7.50;66.80;;;;;;4929150;29;20040;-64
2021/05/08 01:06:53;;;;;;;4.55;3.13;;;7.60;66.80;;;;;;4945842;29;20043;-64
2021/05/08 01:09:19;;;;;;;6.97;3.10;;;7.50;66.90;;;;;;4945924;29;20188;-65
2021/05/08 01:11:44;;;;;;;5.82;2.97;;;7.50;66.90;;;;;;4947474;29;20042;-64
2021/05/08 01:14:10;;;;;;;5.53;3.08;;;7.60;67.00;;;;;;4946028;29;20078;-64
2021/05/08 01:16:35;;;;;;;6.10;3.63;;;7.50;66.90;;;;;;4929164;29;20087;-65
2021/05/08 01:19:01;;;;;;;4.07;2.90;;;7.40;66.90;;;;;;4945560;29;20079;-65
2021/05/08 01:21:26;;;;;;;5.97;3.50;;;7.30;67.20;;;;;;4945756;29;20091;-65
2021/05/08 01:23:52;;;;;;;4.25;3.00;;;7.30;67.00;;;;;;4947395;29;20075;-65
2021/05/08 01:26:18;;;;;;;5.35;2.95;;;7.40;67.30;;;;;;4945840;29;20235;-64
2021/05/08 01:28:43;;;;;;;5.97;3.28;;;7.40;66.80;;;;;;4945771;29;20048;-65
2021/05/08 01:31:09;;;;;;;4.55;2.72;;;7.40;67.00;;;;;;4945361;29;20043;-64
2021/05/08 01:33:35;;;;;;;5.47;3.50;;;7.40;66.80;;;;;;4945202;29;20048;-65
2021/05/08 01:36:01;;;;;;;6.13;3.30;;;7.40;66.80;;;;;;4947396;29;20063;-65
2021/05/08 01:38:26;;;;;;;5.38;3.25;;;7.40;67.00;;;;;;4945927;29;20036;-65
2021/05/08 01:41:06;;;;;;;6.90;3.28;;;7.30;66.80;;;;;;4945184;29;20040;-65
2021/05/08 01:43:32;;;;;;;5.38;3.33;;;7.30;66.90;;;;;;4945601;29;20035;-65
2021/05/08 01:45:57;;;;;;;4.93;3.03;;;7.30;67.10;;;;;;4945160;29;20063;-65
2021/05/08 01:48:24;;;;;;;5.30;3.28;;;7.20;67.30;;;;;;4945069;29;20090;-65
2021/05/08 01:50:50;;;;;;;9.07;2.83;;;7.20;67.40;;;;;;4946678;29;20035;-65
2021/05/08 01:53:15;;;;;;;5.57;3.38;;;7.30;67.30;;;;;;4945345;29;20325;-65
2021/05/08 01:55:41;;;;;;;4.97;3.03;;;7.30;66.90;;;;;;4945012;29;20043;-64
2021/05/08 01:58:06;;;;;;;5.07;3.70;;;7.30;67.00;;;;;;4944996;29;20310;-64
2021/05/08 02:00:35;;;;;;;5.70;3.35;;;7.20;66.80;;;;;;4944949;29;20258;-65
2021/05/08 02:03:01;;;;;;;4.50;3.15;;;7.10;67.10;;;;;;4946647;29;20031;-65
2021/05/08 02:05:28;;;;;;;6.38;3.45;;;7.00;66.70;;;;;;4945478;29;20058;-65
2021/05/08 02:07:54;;;;;;;5.50;3.00;;;7.20;66.60;;;;;;4945020;29;20043;-65
2021/05/08 02:10:19;;;;;;;4.88;3.00;;;7.20;66.80;;;;;;4944837;29;20103;-65
2021/05/08 02:12:45;;;;;;;3.88;2.90;;;7.00;66.90;;;;;;4945194;29;20083;-65
2021/05/08 02:15:12;;;;;;;5.93;2.80;;;7.10;66.90;;;;;;4946815;29;20039;-65
2021/05/08 02:17:38;;;;;;;4.60;2.83;;;7.10;66.60;;;;;;4945663;29;20032;-65
2021/05/08 02:20:08;;;;;;;4.57;3.03;;;7.10;66.70;;;;;;4944827;29;20047;-65
2021/05/08 02:22:33;;;;;;;4.68;3.03;;;7.10;66.80;;;;;;4944911;29;20046;-65
2021/05/08 02:24:59;;;;;;;4.68;3.05;;;7.10;66.70;;;;;;4944724;29;20036;-65
2021/05/08 02:27:24;;;;;;;3.97;2.83;;;6.90;66.60;;;;;;4944718;29;20075;-65
2021/05/08 02:29:50;;;;;;;3.80;3.00;;;7.00;67.10;;;;;;4946939;29;20311;-65
2021/05/08 02:32:15;;;;;;;4.70;2.90;;;7.10;67.20;;;;;;4944794;29;20339;-64
2021/05/08 02:34:41;;;;;;;4.28;3.00;;;7.20;66.70;;;;;;4944635;29;20058;-65
2021/05/08 02:37:06;;;;;;;5.38;2.90;;;7.30;66.40;;;;;;4944714;29;20028;-65
2021/05/08 02:39:32;;;;;;;4.38;3.00;;;7.20;66.30;;;;;;4944669;29;20055;-65
2021/05/08 02:41:57;;;;;;;3.97;3.15;;;7.00;66.70;;;;;;4946329;29;20038;-65
2021/05/08 02:44:23;;;;;;;4.50;2.50;;;7.00;66.80;;;;;;4944898;29;20331;-65
2021/05/08 02:46:49;;;;;;;3.55;2.85;;;7.00;67.10;;;;;;4944970;29;20040;-65
2021/05/08 02:49:14;;;;;;;5.93;3.13;;;7.10;66.70;;;;;;4948055;29;20227;-65
2021/05/08 02:51:40;;;;;;;5.25;3.00;;;7.10;66.70;;;;;;4948191;29;20049;-65
2021/05/08 02:54:05;;;;;;;4.57;2.88;;;7.20;66.60;;;;;;4949842;29;20055;-65
2021/05/08 02:56:31;;;;;;;5.07;3.10;;;6.90;66.70;;;;;;4948342;29;20318;-65
2021/05/08 02:58:56;;;;;;;5.10;3.40;;;6.90;66.80;;;;;;4948233;29;20051;-65
2021/05/08 03:01:22;;;;;;;5.20;2.70;;;6.90;67.20;;;;;;4948244;29;20118;-65
2021/05/08 03:03:47;;;;;;;5.15;3.10;;;6.90;67.10;;;;;;4948196;29;20031;-65
2021/05/08 03:06:13;;;;;;;4.50;2.70;;;7.00;66.80;;;;;;4949583;29;20046;-65
2021/05/08 03:08:38;;;;;;;4.93;2.85;;;7.10;66.40;;;;;;4948473;29;20063;-65
2021/05/08 03:11:04;;;;;;;5.35;2.80;;;7.00;66.30;;;;;;4947963;29;20335;-65
2021/05/08 03:13:29;;;;;;;4.25;3.00;;;7.00;66.20;;;;;;4948194;29;20043;-65
2021/05/08 03:15:55;;;;;;;4.47;2.75;;;6.90;66.70;;;;;;4947922;29;20039;-64
2021/05/08 03:18:20;;;;;;;3.90;2.92;;;7.00;66.60;;;;;;4947881;29;20088;-65
2021/05/08 03:20:46;;;;;;;3.90;2.95;;;7.10;66.10;;;;;;4949624;29;20039;-65
2021/05/08 03:23:11;;;;;;;4.00;2.80;;;7.10;66.20;;;;;;4948067;29;20102;-65
2021/05/08 03:25:37;;;;;;;4.43;2.72;;;7.00;65.90;;;;;;4948040;29;20035;-65
2021/05/08 03:28:03;;;;;;;4.05;2.80;;;7.10;65.70;;;;;;4947531;29;20075;-65
2021/05/08 03:30:28;;;;;;;4.78;2.80;;;6.90;65.60;;;;;;4947480;29;20262;-65
2021/05/08 03:32:54;;;;;;;4.50;2.67;;;6.90;66.20;;;;;;4949400;29;20071;-65
2021/05/08 03:35:19;;;;;;;6.10;2.97;;;6.90;66.10;;;;;;4947917;29;20039;-65
2021/05/08 03:37:45;;;;;;;5.25;2.80;;;6.90;65.90;;;;;;4947395;29;20346;-65
2021/05/08 03:40:11;;;;;;;4.10;2.92;;;6.90;66.10;;;;;;4947454;29;20044;-65
2021/05/08 03:42:36;;;;;;;5.50;2.88;;;6.80;66.00;;;;;;4947365;29;20335;-65
2021/05/08 03:45:02;;;;;;;5.85;2.75;;;6.80;66.20;;;;;;4948936;29;20039;-65
2021/05/08 03:47:27;;;;;;;4.03;2.60;;;6.80;66.50;;;;;;4947816;29;20044;-65
2021/05/08 03:49:53;;;;;;;4.55;2.97;;;6.80;66.40;;;;;;4947637;29;20051;-64
2021/05/08 03:52:18;;;;;;;4.47;2.67;;;6.80;66.50;;;;;;4947466;29;20078;-65
2021/05/08 03:54:44;;;;;;;4.07;3.00;;;6.90;66.30;;;;;;4947296;29;20275;-65
2021/05/08 03:57:09;;;;;;;4.10;2.83;;;6.80;66.20;;;;;;4948688;29;20036;-65
2021/05/08 03:59:35;;;;;;;5.90;3.05;;;6.70;66.30;;;;;;4946052;29;20296;-65
2021/05/08 04:02:00;;;;;;;7.57;2.92;;;6.70;66.90;;;;;;4947414;29;20044;-65
2021/05/08 04:04:26;;;;;;;3.67;2.63;;;6.60;66.70;;;;;;4946936;29;20047;-65
2021/05/08 04:06:51;;;;;;;4.43;2.80;;;6.60;67.00;;;;;;4946996;29;20223;-64
2021/05/08 04:09:17;;;;;;;4.13;2.90;;;6.60;66.70;;;;;;4946824;29;20036;-65
2021/05/08 04:11:43;;;;;;;6.07;3.20;;;6.60;66.80;;;;;;4948347;29;20067;-65
2021/05/08 04:14:08;;;;;;;4.03;2.75;;;6.60;67.00;;;;;;4946997;29;20050;-64
2021/05/08 04:16:34;;;;;;;4.13;2.60;;;6.50;66.90;;;;;;4929955;29;20103;-64
2021/05/08 04:19:00;;;;;;;5.82;2.90;;;6.60;67.30;;;;;;4946666;29;20039;-65
2021/05/08 04:21:25;;;;;;;5.75;2.88;;;6.60;67.00;;;;;;4946676;29;20028;-65
2021/05/08 04:23:51;;;;;;;3.90;2.47;;;6.70;67.10;;;;;;4948240;29;20050;-65
2021/05/08 04:26:16;;;;;;;4.43;2.80;;;6.80;67.00;;;;;;4946939;29;20076;-65
2021/05/08 04:28:42;;;;;;;4.82;2.60;;;6.80;67.00;;;;;;4946614;29;20043;-64
2021/05/08 04:31:08;;;;;;;4.15;2.65;;;6.80;66.90;;;;;;4946270;29;20339;-65
2021/05/08 04:33:33;;;;;;;3.75;2.53;;;6.70;66.80;;;;;;4946307;29;20031;-65
2021/05/08 04:35:59;;;;;;;4.88;2.88;;;6.90;67.20;;;;;;4948047;29;20066;-64
2021/05/08 04:38:24;;;;;;;4.82;3.03;;;6.80;66.80;;;;;;4946704;29;20327;-64
2021/05/08 04:40:54;;;;;;;5.32;2.65;;;6.80;67.00;;;;;;4946270;29;20234;-64
2021/05/08 04:43:19;;;;;;;4.35;2.80;;;6.90;67.10;;;;;;4946690;29;20040;-64
2021/05/08 04:45:45;;;;;;;3.53;2.65;;;6.90;66.90;;;;;;4946353;29;20036;-64
2021/05/08 04:48:10;;;;;;;4.80;2.83;;;7.00;66.60;;;;;;4947734;29;20113;-64
2021/05/08 04:50:36;;;;;;;3.38;2.45;;;6.90;66.90;;;;;;4946491;29;20042;-64
2021/05/08 04:53:01;;;;;;;4.97;2.83;;;7.10;67.00;;;;;;4946420;29;20039;-64
2021/05/08 04:55:27;;;;;;;4.55;2.70;;;7.10;66.80;;;;;;4946112;29;20059;-63
2021/05/08 04:57:52;;;;;;;3.70;2.50;;;7.10;66.90;;;;;;4946063;29;20236;-64
2021/05/08 05:00:18;;;;;;;3.25;2.50;;;7.10;67.20;;;;;;4945754;29;20087;-64
2021/05/08 05:02:44;;;;;;;5.43;2.70;;;7.10;67.00;;;;;;4947754;29;20219;-64
2021/05/08 05:05:11;;;;;;;3.70;2.70;;;7.10;67.00;;;;;;4946312;29;20043;-64
2021/05/08 05:07:37;;;;;;;5.38;2.65;;;7.20;67.10;;;;;;4928933;29;20063;-64
2021/05/08 05:10:03;;;;;;;3.53;2.42;;;7.20;67.00;;;;;;4945415;29;20036;-64
2021/05/08 05:12:29;;;;;;;4.93;2.70;;;7.30;66.90;;;;;;4945559;29;20078;-64
2021/05/08 05:14:54;;;;;;;4.20;2.40;;;7.30;66.90;;;;;;4947443;29;20074;-64
2021/05/08 05:17:20;;;;;;;4.28;2.60;;;7.40;67.00;;;;;;4944968;29;20193;-64
2021/05/08 05:19:45;;;;;;;4.38;2.80;;;7.40;66.90;;;;;;4945386;29;20043;-64
2021/05/08 05:22:11;;;;;;;6.25;2.63;;;7.30;66.90;;;;;;4945622;29;20038;-64
2021/05/08 05:24:36;;;;;;;4.55;2.60;;;7.40;67.00;;;;;;4945552;29;20035;-64
2021/05/08 05:27:02;;;;;;;2.95;2.25;;;7.40;66.90;;;;;;4947402;29;20028;-64
2021/05/08 05:29:27;;;;;;;4.88;2.53;;;7.50;67.10;;;;;;4945977;29;20046;-64
2021/05/08 05:31:53;;;;;;;4.72;3.00;;;7.60;67.20;;;;;;4944901;29;20044;-64
2021/05/08 05:34:20;;;;;;;5.07;2.70;;;7.60;67.20;;;;;;4945295;29;20264;-64
2021/05/08 05:36:46;;;;;;;4.15;2.55;;;7.70;67.20;;;;;;4945198;29;20040;-64
2021/05/08 05:39:12;;;;;;;4.68;2.95;;;7.60;67.30;;;;;;4947224;29;20341;-64
2021/05/08 05:41:37;;;;;;;6.25;2.80;;;7.80;67.10;;;;;;4945771;29;20090;-64
2021/05/08 05:44:03;;;;;;;4.85;2.47;;;7.70;67.50;;;;;;4945106;29;20063;-64
2021/05/08 05:46:30;;;;;;;4.35;2.70;;;7.80;66.90;;;;;;4945192;29;20042;-64
2021/05/08 05:48:55;;;;;;;3.70;2.55;;;7.80;67.10;;;;;;4945407;29;20035;-64
2021/05/08 05:51:21;;;;;;;4.43;2.42;;;7.90;67.10;;;;;;4945267;29;20096;-65
2021/05/08 05:53:55;;;;;;;5.97;2.92;;;7.90;66.50;;;;;;4946693;29;20027;-64
2021/05/08 05:56:21;;;;;;;5.75;2.80;;;8.00;66.00;;;;;;4945206;29;20402;-64
2021/05/08 05:58:46;;;;;;;4.50;2.63;;;8.10;65.90;;;;;;4945008;29;20036;-64
2021/05/08 06:01:12;;;;;;;4.15;2.70;;;8.10;65.90;;;;;;4945091;29;20091;-64
2021/05/08 06:03:37;;;;;;;6.88;3.05;;;8.20;65.90;;;;;;4945005;29;20132;-64
2021/05/08 06:06:03;;;;;;;4.43;3.00;;;8.20;66.10;;;;;;4929638;29;20378;-65
2021/05/08 06:08:29;;;;;;;4.68;2.97;;;8.30;65.90;;;;;;4944571;29;20047;-64
2021/05/08 06:10:55;;;;;;;3.92;2.83;;;8.30;65.90;;;;;;4944993;29;20039;-65
2021/05/08 06:13:20;;;;;;;4.72;2.55;;;8.40;65.50;;;;;;4945278;29;20326;-64
2021/05/08 06:15:46;;;;;;;4.82;2.80;;;8.50;65.70;;;;;;4945009;29;20098;-64
2021/05/08 06:18:12;;;;;;;6.80;3.03;;;8.50;65.80;;;;;;4946528;29;20032;-64
2021/05/08 06:20:37;;;;;;;4.78;2.90;;;8.60;65.90;;;;;;4945455;29;20091;-64
2021/05/08 06:23:03;;;;;;;6.80;2.90;;;8.60;66.00;;;;;;4947101;29;20091;-64
2021/05/08 06:25:29;;;;;;;4.72;2.80;;;8.70;65.70;;;;;;4949250;29;20264;-63
2021/05/08 06:27:54;;;;;;;6.07;3.00;;;8.80;65.30;;;;;;4948891;29;20280;-64
2021/05/08 06:30:20;;;;;;;6.72;3.20;;;8.80;65.20;;;;;;4948973;29;20319;-65
2021/05/08 06:32:45;;;;;;;5.68;2.78;;;8.80;64.80;;;;;;4950519;29;20075;-64
2021/05/08 06:35:11;;;;;;;6.75;2.80;;;8.90;64.90;;;;;;4948787;29;20228;-65
2021/05/08 06:37:37;;;;;;;3.58;2.63;;;9.00;65.40;;;;;;4948659;29;20084;-64
2021/05/08 06:40:03;;;;;;;4.30;2.78;;;9.10;64.90;;;;;;4931861;29;20027;-64
2021/05/08 06:42:29;;;;;;;4.35;2.78;;;9.20;64.50;;;;;;4931529;29;20319;-65
2021/05/08 06:44:54;;;;;;;6.95;3.33;;;9.20;64.10;;;;;;4950230;29;20031;-64
2021/05/08 06:47:20;;;;;;;5.15;2.75;;;9.30;64.30;;;;;;4938854;29;20043;-66
2021/05/08 06:49:46;;;;;;;2.90;2.17;;;9.40;64.80;;;;;;4948417;29;20075;-65
2021/05/08 06:52:11;;;;;;;4.38;2.50;;;9.40;64.10;;;;;;4915433;29;20098;-65
2021/05/08 06:54:37;;;;;;;5.38;2.60;;;9.50;63.80;;;;;;4948149;29;20327;-65
2021/05/08 06:57:04;;;;;;;3.60;2.65;;;9.70;64.00;;;;;;4932816;29;20035;-65
2021/05/08 06:59:29;;;;;;;6.05;2.70;;;9.80;64.50;;;;;;4948195;29;20059;-65
2021/05/08 07:01:55;;;;;;;6.82;3.50;;;9.90;64.30;;;;;;4948091;29;20103;-64
2021/05/08 07:04:20;;;;;;;5.60;2.63;;;9.90;62.70;;;;;;4947890;29;20402;-65
2021/05/08 07:06:47;;;;;;;6.53;2.90;;;10.00;61.70;;;;;;4948096;29;20052;-65
2021/05/08 07:09:12;;;;;;;6.05;2.70;;;10.10;61.50;;;;;;4949523;29;20066;-65
2021/05/08 07:11:38;;;;;;;4.40;2.72;;;10.20;61.20;;;;;;4947972;29;20043;-66
2021/05/08 07:14:03;;;;;;;4.03;2.63;;;10.30;61.20;;;;;;4947682;29;20078;-66
2021/05/08 07:16:29;;;;;;;8.20;2.75;;;10.50;60.50;;;;;;4947738;29;20040;-66
2021/05/08 07:18:55;;;;;;;3.65;2.53;;;10.60;59.00;;;;;;4947508;29;20081;-66
2021/05/08 07:21:20;;;;;;;5.07;2.47;;;10.80;58.50;;;;;;4947588;29;20087;-65
2021/05/08 07:23:46;;;;;;;4.47;2.70;;;10.80;57.70;;;;;;4949781;29;20401;-64
2021/05/08 07:26:11;;;;;;;5.75;2.60;;;10.90;58.80;;;;;;4947905;29;20200;-66
2021/05/08 07:28:37;;;;;;;6.07;2.45;;;11.10;60.00;;;;;;4947491;29;20039;-65
2021/05/08 07:31:03;;;;;;;4.97;2.60;;;11.20;57.50;;;;;;4947421;29;20377;-65
2021/05/08 07:33:29;;;;;;;3.55;2.40;;;11.30;55.90;;;;;;4947252;29;20036;-64
2021/05/08 07:35:54;;;;;;;4.05;2.70;;;11.50;56.20;;;;;;4949231;29;20237;-65
2021/05/08 07:38:20;;;;;;;4.65;2.40;;;11.70;55.10;;;;;;4947488;29;20055;-65
2021/05/08 07:40:49;;;;;;;4.18;2.35;;;11.80;55.50;;;;;;4947715;29;20102;-65
2021/05/08 07:43:16;;;;;;;3.83;2.20;;;12.00;54.70;;;;;;4947411;29;20047;-65
2021/05/08 07:45:41;;;;;;;5.30;2.30;;;12.20;53.80;;;;;;4947977;29;20061;-65
2021/05/08 07:48:07;;;;;;;4.35;2.20;;;12.30;53.60;;;;;;4948883;29;20223;-66
2021/05/08 07:50:33;;;;;;;4.95;2.38;;;12.40;50.60;;;;;;4947539;29;20043;-66
2021/05/08 07:52:58;;;;;;;3.85;2.55;;;12.60;51.90;;;;;;4947242;29;20028;-66
2021/05/08 07:55:24;;;;;;;5.72;2.40;;;12.70;53.10;;;;;;4946794;29;20098;-65
2021/05/08 07:57:50;;;;;;;2.85;1.95;;;12.80;52.50;;;;;;4946945;29;20043;-66
2021/05/08 08:00:17;;;;;;;4.80;2.47;;;12.90;49.90;;;;;;4946935;29;20073;-67
2021/05/08 08:02:42;;;;;;;5.45;2.10;;;13.10;47.80;;;;;;4948721;29;20071;-65
2021/05/08 08:05:08;;;;;;;3.65;2.03;;;13.20;47.60;;;;;;4946894;29;20036;-65
2021/05/08 08:07:34;;;;;;;3.10;2.10;;;13.30;48.60;;;;;;4946352;29;20055;-65
2021/05/08 08:09:59;;;;;;;3.30;2.22;;;13.40;48.20;;;;;;4946412;29;20050;-65
2021/05/08 08:12:25;;;;;;;5.60;2.13;;;13.60;47.40;;;;;;4946191;29;20031;-65
2021/05/08 08:14:51;;;;;;;3.55;1.88;;;13.70;48.10;;;;;;4948511;29;20031;-65
2021/05/08 08:17:17;;;;;;;4.10;2.00;;;13.80;46.60;;;;;;4947039;29;20046;-65
2021/05/08 08:19:44;;;;;;;7.03;1.98;;;13.90;47.70;;;;;;4946913;29;20039;-65
2021/05/08 08:22:09;;;;;;;4.90;1.83;;;14.00;45.90;;;;;;4946646;29;20055;-65
2021/05/08 08:24:35;;;;;;;4.45;2.22;;;14.00;44.30;;;;;;4946156;29;20075;-65
2021/05/08 08:27:00;;;;;;;7.60;1.90;;;14.10;43.90;;;;;;4948486;29;20216;-65
2021/05/08 08:29:28;;;;;;;2.70;1.83;;;14.30;44.80;;;;;;4946848;29;20039;-66
2021/05/08 08:31:53;;;;;;;4.32;1.67;;;14.40;44.40;;;;;;4946338;29;20288;-67
2021/05/08 08:34:19;;;;;;;2.50;1.75;;;14.50;42.00;;;;;;4946167;29;20059;-67
2021/05/08 08:36:44;;;;;;;2.38;1.60;;;14.60;43.60;;;;;;4946216;29;20327;-66
2021/05/08 08:39:10;;;;;;;3.03;1.80;;;14.70;42.50;;;;;;4948056;29;20044;-66
2021/05/08 08:41:35;;;;;;;3.20;1.77;;;14.70;42.50;;;;;;4946149;29;20132;-66
2021/05/08 08:44:02;;;;;;;2.65;1.70;;;14.80;42.90;;;;;;4946531;29;20193;-67
2021/05/08 08:46:27;;;;;;;4.25;1.45;;;14.80;42.30;;;;;;4945712;29;20040;-67
2021/05/08 08:48:53;;;;;;;8.48;2.10;;;14.90;43.60;;;;;;4946522;29;20136;-66
2021/05/08 08:51:18;;;;;;;3.30;1.42;;;15.00;42.10;;;;;;4945828;29;20035;-66
2021/05/08 08:53:44;;;;;;;7.13;2.10;;;15.10;41.60;;;;;;4947499;29;20079;-67
2021/05/08 08:56:10;;;;;;;5.15;1.83;;;15.10;41.20;;;;;;4945926;29;20043;-67
2021/05/08 08:58:37;;;;;;;5.45;2.10;;;15.20;41.40;;;;;;4945721;29;20040;-67
2021/05/08 09:01:05;;;;;;;4.13;1.70;;;15.30;41.70;;;;;;4929421;29;20219;-66
2021/05/08 09:03:30;;;;;;;5.30;1.70;;;15.20;40.80;;;;;;4928879;29;20035;-67
2021/05/08 09:05:58;;;;;;;4.05;1.60;;;15.20;41.40;;;;;;4947407;29;20323;-66
2021/05/08 09:08:23;;;;;;;2.45;1.42;;;15.30;40.70;;;;;;4946142;29;20035;-65
2021/05/08 09:10:51;;;;;;;2.53;1.60;;;15.30;41.10;;;;;;4945635;29;20047;-67
2021/05/08 09:13:18;;;;;;;5.40;1.45;;;15.50;41.80;;;;;;4945540;29;20230;-66
2021/05/08 09:15:45;;;;;;;3.17;1.40;;;15.40;41.80;;;;;;4945795;29;20357;-66
2021/05/08 09:18:35;;;;;;;5.80;1.75;;;15.60;41.90;;;;;;4947486;29;20028;-66
2021/05/08 09:21:00;;;;;;;2.63;1.50;;;15.80;41.90;;;;;;4946166;29;20052;-66
2021/05/08 09:23:33;;;;;;;2.15;1.45;;;15.80;42.10;;;;;;4945825;29;20039;-66
2021/05/08 09:26:05;;;;;;;3.90;1.35;;;15.80;42.00;;;;;;4945780;29;20036;-66
2021/05/08 09:28:31;;;;;;;4.20;1.27;;;15.80;40.80;;;;;;4928915;29;20111;-66
2021/05/08 09:30:57;;;;;;;4.32;2.17;;;15.90;40.40;;;;;;4945443;29;20059;-66
2021/05/08 09:33:24;;;;;;;3.47;1.50;;;15.90;41.80;;;;;;4945704;29;20043;-66
2021/05/08 09:35:59;;;;;;;2.75;1.50;;;16.00;42.00;;;;;;4947167;29;20027;-66
2021/05/08 09:38:38;;;;;;;3.25;1.50;;;16.00;42.20;;;;;;4945979;29;20255;-66
2021/05/08 09:41:05;;;;;;;3.83;1.27;;;16.00;43.90;;;;;;4945582;29;20051;-66
2021/05/08 09:43:31;;;;;;;2.08;1.20;;;16.00;42.90;;;;;;4945215;29;20128;-66
2021/05/08 09:45:57;;;;;;;7.72;1.77;;;16.00;42.30;;;;;;4945391;29;20039;-66
2021/05/08 09:48:25;;;;;;;3.58;1.80;;;16.20;42.00;;;;;;4945000;29;20024;-66
2021/05/08 09:50:51;;;;;;;3.28;1.40;;;16.30;40.10;;;;;;4947095;29;20114;-66
2021/05/08 09:53:30;;;;;;;2.65;1.23;;;16.40;40.50;;;;;;4945032;29;20031;-67
2021/05/08 09:55:56;;;;;;;3.08;1.42;;;16.50;40.90;;;;;;4944881;29;20040;-66
2021/05/08 09:58:25;;;;;;;7.05;1.30;;;16.50;40.40;;;;;;4945032;29;20038;-66
2021/05/08 10:00:51;;;;;;;2.53;1.40;;;16.60;41.70;;;;;;4944938;29;20048;-66
2021/05/08 10:03:17;;;;;;;2.65;1.17;;;16.80;42.20;;;;;;4944886;29;20054;-67
2021/05/08 10:06:07;;;;;;;3.60;1.25;;;16.90;38.00;;;;;;4946998;29;20034;-69
2021/05/08 10:08:33;;;;;;;1.75;1.20;;;17.00;39.30;;;;;;4928458;29;20048;-67
2021/05/08 10:10:59;;;;;;;1.98;1.20;;;17.10;40.00;;;;;;4944815;29;20204;-68
2021/05/08 10:13:27;;;;;;;3.28;1.20;;;17.20;40.10;;;;;;4928161;29;20039;-68
2021/05/08 10:15:52;;;;;;;1.63;1.08;;;17.10;38.60;;;;;;4928527;29;20087;-66
2021/05/08 10:18:18;;;;;;;2.25;1.00;;;17.30;39.90;;;;;;4928374;29;20040;-66
2021/05/08 10:20:43;;;;;;;2.20;1.20;;;17.40;40.20;;;;;;4929807;29;20039;-66
2021/05/08 10:23:10;;;;;;;3.28;1.33;;;17.50;40.40;;;;;;4944922;29;20047;-67
2021/05/08 10:25:37;;;;;;;5.00;1.23;;;17.60;40.50;;;;;;4944716;29;20039;-66
2021/05/08 10:28:03;;;;;;;2.42;1.13;;;17.70;39.30;;;;;;4944633;29;20040;-65
2021/05/08 10:30:42;;;;;;;2.60;1.10;;;17.70;38.00;;;;;;4944347;29;20039;-65
2021/05/08 10:33:09;;;;;;;2.25;1.20;;;17.60;36.30;;;;;;4929683;29;20031;-65
2021/05/08 10:35:47;;;;;;;2.42;1.23;;;17.70;38.40;;;;;;4927855;29;20047;-66
2021/05/08 10:38:18;;;;;;;4.30;1.48;;;17.70;37.10;;;;;;4944472;29;20095;-65
2021/05/08 10:40:51;;;;;;;3.22;1.45;;;17.80;37.20;;;;;;4927547;29;20091;-64
2021/05/08 10:43:39;;;;;;;2.33;1.50;;;17.80;36.90;;;;;;4927451;29;20044;-64
2021/05/08 10:46:04;;;;;;;5.00;1.23;;;17.80;35.50;;;;;;4944526;29;20331;-64
2021/05/08 10:48:30;;;;;;;2.80;1.02;;;17.80;37.50;;;;;;4943947;29;20046;-65
2021/05/08 10:50:58;;;;;;;1.58;1.10;;;17.90;36.90;;;;;;4945831;29;20035;-65
2021/05/08 10:53:37;;;;;;;1.83;1.00;;;17.90;35.10;;;;;;4944691;29;20100;-65
2021/05/08 10:56:03;;;;;;;1.98;1.00;;;17.90;35.20;;;;;;4944171;29;20321;-66
2021/05/08 10:58:33;;;;;;;3.13;1.38;;;18.00;36.80;;;;;;4927628;29;20063;-64
2021/05/08 11:01:05;;;;;;;1.55;0.80;;;18.10;35.60;;;;;;4927841;29;20044;-65
2021/05/08 11:03:31;;;;;;;2.72;1.10;;;18.10;34.50;;;;;;4944192;29;20082;-65
2021/05/08 11:06:04;;;;;;;2.20;0.98;;;18.00;35.90;;;;;;4946060;29;20028;-65
2021/05/08 11:08:29;;;;;;;3.30;1.00;;;17.90;34.20;;;;;;4945682;29;20040;-64
2021/05/08 11:11:14;;;;;;;1.25;0.80;;;18.10;34.70;;;;;;4948058;29;20042;-65
2021/05/08 11:13:43;;;;;;;2.70;0.90;;;18.20;34.30;;;;;;4947975;29;20381;-65
2021/05/08 11:16:18;;;;;;;2.58;1.00;;;18.30;37.50;;;;;;4947861;29;20087;-65
2021/05/08 11:18:48;;;;;;;1.75;0.85;;;18.40;38.60;;;;;;4947534;29;20087;-66
2021/05/08 11:21:13;;;;;;;2.58;1.10;;;18.60;36.50;;;;;;4949520;29;20094;-64
2021/05/08 11:23:48;;;;;;;5.40;1.00;;;18.70;35.20;;;;;;4947657;29;20043;-66
2021/05/08 11:26:26;;;;;;;1.63;0.98;;;18.80;36.10;;;;;;4947625;29;20216;-65
2021/05/08 11:29:18;;;;;;;1.50;0.90;;;18.90;35.70;;;;;;4947538;29;20043;-64
2021/05/08 11:31:54;;;;;;;1.95;0.95;;;19.00;31.60;;;;;;4947144;29;20110;-63
2021/05/08 11:34:19;;;;;;;1.63;1.00;;;19.10;31.20;;;;;;4947261;29;20099;-64
2021/05/08 11:36:49;;;;;;;1.77;1.00;;;19.10;34.50;;;;;;4947258;29;20365;-63
2021/05/08 11:39:36;;;;;;;2.25;0.90;;;19.30;34.80;;;;;;4948752;29;20038;-64
2021/05/08 11:42:18;;;;;;;2.78;0.95;;;19.00;28.80;;;;;;4948261;29;20114;-63
2021/05/08 11:44:47;;;;;;;2.13;0.80;;;19.10;33.30;;;;;;4947895;29;20107;-64
2021/05/08 11:47:35;;;;;;;2.63;1.05;;;19.30;33.80;;;;;;4929778;29;20315;-64
2021/05/08 11:50:11;;;;;;;1.58;0.90;;;19.20;32.80;;;;;;4933047;29;20040;-64
2021/05/08 11:52:43;;;;;;;2.00;1.00;;;19.30;33.40;;;;;;4947367;29;20040;-65
2021/05/08 11:55:20;;;;;;;1.27;0.80;;;19.40;31.10;;;;;;4946997;29;20091;-64
2021/05/08 11:57:57;;;;;;;3.25;1.10;;;19.50;34.40;;;;;;4946992;29;20107;-64
2021/05/08 12:00:24;;;;;;;1.77;0.90;;;19.60;33.90;;;;;;4946389;29;20094;-66
2021/05/08 12:02:51;;;;;;;2.55;1.40;;;19.60;33.40;;;;;;4948934;29;20074;-66
2021/05/08 12:05:20;;;;;;;3.42;0.80;;;19.60;31.60;;;;;;4946885;29;20394;-67
2021/05/08 12:07:46;;;;;;;1.88;0.88;;;19.70;34.50;;;;;;4946900;29;20043;-66
2021/05/08 12:10:16;;;;;;;0.77;0.60;;;19.80;33.60;;;;;;4946578;29;20039;-67
2021/05/08 12:12:53;;;;;;;2.75;0.70;;;19.60;31.70;;;;;;4946380;29;20238;-65
2021/05/08 12:15:37;;;;;;;1.67;1.20;;;19.60;31.30;;;;;;4946226;29;20036;-65
2021/05/08 12:18:12;;;;;;;2.58;0.80;;;19.60;32.40;;;;;;4948129;29;20366;-66
2021/05/08 12:20:42;;;;;;;1.83;1.00;;;19.80;33.30;;;;;;4928582;29;20223;-65
2021/05/08 12:23:20;;;;;;;2.13;1.02;;;19.80;32.60;;;;;;4946309;29;20111;-64
2021/05/08 12:26:05;;;;;;;3.33;0.90;;;19.90;33.40;;;;;;4946398;29;20046;-66
2021/05/08 12:28:30;;;;;;;3.78;0.75;;;20.00;33.00;;;;;;4946753;29;20040;-67
2021/05/08 12:30:56;;;;;;;2.15;0.80;;;20.20;32.70;;;;;;4946370;29;20087;-65
2021/05/08 12:33:25;;;;;;;1.38;0.80;;;20.20;33.60;;;;;;4929325;29;20059;-66
2021/05/08 12:35:54;;;;;;;1.42;0.80;;;20.30;33.00;;;;;;4948159;29;20047;-66
2021/05/08 12:38:29;;;;;;;2.15;0.93;;;20.20;31.70;;;;;;4946684;29;20043;-65
2021/05/08 12:40:54;;;;;;;2.60;0.90;;;20.30;32.20;;;;;;4946517;29;20042;-66
2021/05/08 12:43:28;;;;;;;1.85;0.80;;;20.30;31.80;;;;;;4946235;29;20035;-65
2021/05/08 12:46:06;;;;;;;1.65;0.80;;;20.30;32.00;;;;;;4946309;29;20055;-65
2021/05/08 12:48:34;;;;;;;1.40;0.90;;;20.20;30.20;;;;;;4928903;29;20027;-66
2021/05/08 12:50:59;;;;;;;3.10;0.80;;;20.30;31.00;;;;;;4947553;29;20027;-65
2021/05/08 12:53:25;;;;;;;1.92;0.90;;;20.30;31.50;;;;;;4946287;29;20051;-65